sensor_id;sensor_type;location;lat;lon;timestamp;P1;durP1;ratioP1;P2;durP2;ratioP2
52041;SDS011;38052;45.944;13.624;2024-01-25T00:01:45;34.85;;;26.33;;
52041;SDS011;38052;45.944;13.624;2024-01-25T00:04:11;36.08;;;26.63;;
52041;SDS011;38052;45.944;13.624;2024-01-25T00:06:38;35.03;;;24.85;;
52041;SDS011;38052;45.944;13.624;2024-01-25T00:09:04;41.83;;;27.38;;
52041;SDS011;38052;45.944;13.624;2024-01-25T00:11:30;39.08;;;24.10;;
52041;SDS011;38052;45.944;13.624;2024-01-25T00:13:57;30.00;;;22.67;;
52041;SDS011;38052;45.944;13.624;2024-01-25T00:16:23;35.92;;;25.08;;
52041;SDS011;38052;45.944;13.624;2024-01-25T00:18:49;36.17;;;24.35;;
52041;SDS011;38052;45.944;13.624;2024-01-25T00:21:16;34.58;;;25.83;;
52041;SDS011;38052;45.944;13.624;2024-01-25T00:23:42;32.58;;;24.45;;
52041;SDS011;38052;45.944;13.624;2024-01-25T00:26:08;35.90;;;26.38;;
52041;SDS011;38052;45.944;13.624;2024-01-25T00:28:35;37.33;;;27.60;;
52041;SDS011;38052;45.944;13.624;2024-01-25T00:31:01;36.70;;;27.70;;
52041;SDS011;38052;45.944;13.624;2024-01-25T00:33:28;43.90;;;29.98;;
52041;SDS011;38052;45.944;13.624;2024-01-25T00:35:54;44.92;;;32.35;;
52041;SDS011;38052;45.944;13.624;2024-01-25T00:38:21;35.13;;;26.50;;
52041;SDS011;38052;45.944;13.624;2024-01-25T00:40:47;34.42;;;26.23;;
52041;SDS011;38052;45.944;13.624;2024-01-25T00:43:14;39.78;;;27.38;;
52041;SDS011;38052;45.944;13.624;2024-01-25T00:45:40;45.97;;;31.63;;
52041;SDS011;38052;45.944;13.624;2024-01-25T00:48:08;41.17;;;30.15;;
52041;SDS011;38052;45.944;13.624;2024-01-25T00:50:37;44.30;;;32.78;;
52041;SDS011;38052;45.944;13.624;2024-01-25T00:53:04;43.22;;;34.88;;
52041;SDS011;38052;45.944;13.624;2024-01-25T00:55:30;42.35;;;32.80;;
52041;SDS011;38052;45.944;13.624;2024-01-25T00:57:58;42.28;;;33.58;;
52041;SDS011;38052;45.944;13.624;2024-01-25T01:00:25;37.58;;;31.63;;
52041;SDS011;38052;45.944;13.624;2024-01-25T01:02:51;36.47;;;27.55;;
52041;SDS011;38052;45.944;13.624;2024-01-25T01:05:20;40.55;;;28.67;;
52041;SDS011;38052;45.944;13.624;2024-01-25T01:07:47;36.67;;;26.23;;
52041;SDS011;38052;45.944;13.624;2024-01-25T01:10:14;34.20;;;22.90;;
52041;SDS011;38052;45.944;13.624;2024-01-25T01:12:40;32.05;;;22.48;;
52041;SDS011;38052;45.944;13.624;2024-01-25T01:15:06;29.48;;;21.55;;
52041;SDS011;38052;45.944;13.624;2024-01-25T01:17:33;32.30;;;23.42;;
52041;SDS011;38052;45.944;13.624;2024-01-25T01:19:59;29.77;;;22.08;;
52041;SDS011;38052;45.944;13.624;2024-01-25T01:22:26;27.38;;;21.33;;
52041;SDS011;38052;45.944;13.624;2024-01-25T01:24:52;30.83;;;23.92;;
52041;SDS011;38052;45.944;13.624;2024-01-25T01:27:18;29.52;;;23.20;;
52041;SDS011;38052;45.944;13.624;2024-01-25T01:29:46;30.73;;;23.60;;
52041;SDS011;38052;45.944;13.624;2024-01-25T01:32:13;28.75;;;22.08;;
52041;SDS011;38052;45.944;13.624;2024-01-25T01:34:39;29.05;;;22.67;;
52041;SDS011;38052;45.944;13.624;2024-01-25T01:37:06;30.63;;;22.48;;
52041;SDS011;38052;45.944;13.624;2024-01-25T01:39:32;28.83;;;20.80;;
52041;SDS011;38052;45.944;13.624;2024-01-25T01:41:59;30.80;;;20.83;;
52041;SDS011;38052;45.944;13.624;2024-01-25T01:44:26;27.02;;;22.13;;
52041;SDS011;38052;45.944;13.624;2024-01-25T01:46:52;25.52;;;21.08;;
52041;SDS011;38052;45.944;13.624;2024-01-25T01:49:20;24.45;;;19.63;;
52041;SDS011;38052;45.944;13.624;2024-01-25T01:51:46;27.90;;;22.17;;
52041;SDS011;38052;45.944;13.624;2024-01-25T01:54:12;28.30;;;18.65;;
52041;SDS011;38052;45.944;13.624;2024-01-25T01:56:39;25.60;;;18.00;;
52041;SDS011;38052;45.944;13.624;2024-01-25T01:59:09;25.15;;;19.50;;
52041;SDS011;38052;45.944;13.624;2024-01-25T02:01:39;25.92;;;17.35;;
52041;SDS011;38052;45.944;13.624;2024-01-25T02:04:05;22.90;;;16.92;;
52041;SDS011;38052;45.944;13.624;2024-01-25T02:06:31;23.70;;;16.98;;
52041;SDS011;38052;45.944;13.624;2024-01-25T02:08:58;21.38;;;14.50;;
52041;SDS011;38052;45.944;13.624;2024-01-25T02:11:24;21.27;;;16.00;;
52041;SDS011;38052;45.944;13.624;2024-01-25T02:13:51;19.65;;;15.00;;
52041;SDS011;38052;45.944;13.624;2024-01-25T02:16:17;23.15;;;15.63;;
52041;SDS011;38052;45.944;13.624;2024-01-25T02:18:45;22.77;;;16.30;;
52041;SDS011;38052;45.944;13.624;2024-01-25T02:21:11;23.05;;;17.30;;
52041;SDS011;38052;45.944;13.624;2024-01-25T02:23:38;23.10;;;16.40;;
52041;SDS011;38052;45.944;13.624;2024-01-25T02:26:05;26.75;;;17.08;;
52041;SDS011;38052;45.944;13.624;2024-01-25T02:28:31;19.77;;;15.52;;
52041;SDS011;38052;45.944;13.624;2024-01-25T02:30:58;22.02;;;16.50;;
52041;SDS011;38052;45.944;13.624;2024-01-25T02:33:25;21.05;;;16.63;;
52041;SDS011;38052;45.944;13.624;2024-01-25T02:35:51;30.05;;;18.38;;
52041;SDS011;38052;45.944;13.624;2024-01-25T02:38:18;22.15;;;17.13;;
52041;SDS011;38052;45.944;13.624;2024-01-25T02:40:45;23.42;;;16.30;;
52041;SDS011;38052;45.944;13.624;2024-01-25T02:43:11;24.50;;;16.33;;
52041;SDS011;38052;45.944;13.624;2024-01-25T02:45:37;22.15;;;15.68;;
52041;SDS011;38052;45.944;13.624;2024-01-25T02:48:04;20.55;;;15.63;;
52041;SDS011;38052;45.944;13.624;2024-01-25T02:50:30;20.10;;;14.35;;
52041;SDS011;38052;45.944;13.624;2024-01-25T02:52:57;20.02;;;15.07;;
52041;SDS011;38052;45.944;13.624;2024-01-25T02:55:23;23.45;;;18.73;;
52041;SDS011;38052;45.944;13.624;2024-01-25T02:57:49;27.25;;;20.33;;
52041;SDS011;38052;45.944;13.624;2024-01-25T03:00:16;36.03;;;25.23;;
52041;SDS011;38052;45.944;13.624;2024-01-25T03:02:43;32.75;;;26.05;;
52041;SDS011;38052;45.944;13.624;2024-01-25T03:05:10;32.35;;;24.98;;
52041;SDS011;38052;45.944;13.624;2024-01-25T03:07:37;29.65;;;23.20;;
52041;SDS011;38052;45.944;13.624;2024-01-25T03:10:03;32.20;;;23.38;;
52041;SDS011;38052;45.944;13.624;2024-01-25T03:12:30;27.27;;;21.52;;
52041;SDS011;38052;45.944;13.624;2024-01-25T03:14:56;27.50;;;21.02;;
52041;SDS011;38052;45.944;13.624;2024-01-25T03:17:22;24.83;;;18.08;;
52041;SDS011;38052;45.944;13.624;2024-01-25T03:19:49;24.25;;;18.88;;
52041;SDS011;38052;45.944;13.624;2024-01-25T03:22:15;25.65;;;17.60;;
52041;SDS011;38052;45.944;13.624;2024-01-25T03:24:42;20.95;;;16.40;;
52041;SDS011;38052;45.944;13.624;2024-01-25T03:27:08;24.38;;;17.33;;
52041;SDS011;38052;45.944;13.624;2024-01-25T03:29:40;22.75;;;17.33;;
52041;SDS011;38052;45.944;13.624;2024-01-25T03:32:07;22.10;;;16.80;;
52041;SDS011;38052;45.944;13.624;2024-01-25T03:34:33;22.13;;;16.38;;
52041;SDS011;38052;45.944;13.624;2024-01-25T03:37:00;21.58;;;16.73;;
52041;SDS011;38052;45.944;13.624;2024-01-25T03:39:27;20.70;;;14.43;;
52041;SDS011;38052;45.944;13.624;2024-01-25T03:41:53;19.33;;;14.23;;
52041;SDS011;38052;45.944;13.624;2024-01-25T03:44:20;21.25;;;11.45;;
52041;SDS011;38052;45.944;13.624;2024-01-25T03:46:46;18.65;;;12.27;;
52041;SDS011;38052;45.944;13.624;2024-01-25T03:49:13;15.57;;;11.68;;
52041;SDS011;38052;45.944;13.624;2024-01-25T03:51:39;17.85;;;13.00;;
52041;SDS011;38052;45.944;13.624;2024-01-25T03:54:06;16.30;;;11.05;;
52041;SDS011;38052;45.944;13.624;2024-01-25T03:56:32;16.70;;;12.02;;
52041;SDS011;38052;45.944;13.624;2024-01-25T03:58:59;23.98;;;12.82;;
52041;SDS011;38052;45.944;13.624;2024-01-25T04:01:25;15.10;;;11.70;;
52041;SDS011;38052;45.944;13.624;2024-01-25T04:03:52;14.88;;;10.77;;
52041;SDS011;38052;45.944;13.624;2024-01-25T04:06:18;13.75;;;11.18;;
52041;SDS011;38052;45.944;13.624;2024-01-25T04:08:45;17.40;;;11.40;;
52041;SDS011;38052;45.944;13.624;2024-01-25T04:11:12;16.42;;;10.85;;
52041;SDS011;38052;45.944;13.624;2024-01-25T04:13:38;14.68;;;10.60;;
52041;SDS011;38052;45.944;13.624;2024-01-25T04:16:06;13.88;;;11.15;;
52041;SDS011;38052;45.944;13.624;2024-01-25T04:18:32;14.70;;;11.40;;
52041;SDS011;38052;45.944;13.624;2024-01-25T04:21:00;15.05;;;10.32;;
52041;SDS011;38052;45.944;13.624;2024-01-25T04:23:26;15.60;;;11.95;;
52041;SDS011;38052;45.944;13.624;2024-01-25T04:25:53;17.95;;;12.18;;
52041;SDS011;38052;45.944;13.624;2024-01-25T04:28:20;13.65;;;10.98;;
52041;SDS011;38052;45.944;13.624;2024-01-25T04:30:47;18.85;;;11.82;;
52041;SDS011;38052;45.944;13.624;2024-01-25T04:33:13;16.63;;;12.68;;
52041;SDS011;38052;45.944;13.624;2024-01-25T04:35:40;14.77;;;12.48;;
52041;SDS011;38052;45.944;13.624;2024-01-25T04:38:07;18.17;;;14.65;;
52041;SDS011;38052;45.944;13.624;2024-01-25T04:40:33;21.80;;;16.52;;
52041;SDS011;38052;45.944;13.624;2024-01-25T04:43:00;23.13;;;17.13;;
52041;SDS011;38052;45.944;13.624;2024-01-25T04:45:27;21.92;;;14.50;;
52041;SDS011;38052;45.944;13.624;2024-01-25T04:47:53;23.23;;;14.85;;
52041;SDS011;38052;45.944;13.624;2024-01-25T04:50:20;20.58;;;11.43;;
52041;SDS011;38052;45.944;13.624;2024-01-25T04:52:46;15.43;;;11.27;;
52041;SDS011;38052;45.944;13.624;2024-01-25T04:55:13;16.88;;;11.15;;
52041;SDS011;38052;45.944;13.624;2024-01-25T04:57:39;11.75;;;8.80;;
52041;SDS011;38052;45.944;13.624;2024-01-25T05:00:06;14.75;;;9.90;;
52041;SDS011;38052;45.944;13.624;2024-01-25T05:02:32;13.90;;;9.48;;
52041;SDS011;38052;45.944;13.624;2024-01-25T05:04:59;13.88;;;9.07;;
52041;SDS011;38052;45.944;13.624;2024-01-25T05:07:25;14.10;;;9.95;;
52041;SDS011;38052;45.944;13.624;2024-01-25T05:09:51;10.23;;;7.70;;
52041;SDS011;38052;45.944;13.624;2024-01-25T05:12:18;12.50;;;9.68;;
52041;SDS011;38052;45.944;13.624;2024-01-25T05:14:45;13.27;;;8.15;;
52041;SDS011;38052;45.944;13.624;2024-01-25T05:17:11;13.98;;;8.85;;
52041;SDS011;38052;45.944;13.624;2024-01-25T05:19:38;15.32;;;8.73;;
52041;SDS011;38052;45.944;13.624;2024-01-25T05:22:04;12.68;;;8.45;;
52041;SDS011;38052;45.944;13.624;2024-01-25T05:24:32;18.65;;;8.73;;
52041;SDS011;38052;45.944;13.624;2024-01-25T05:26:59;11.60;;;8.82;;
52041;SDS011;38052;45.944;13.624;2024-01-25T05:29:25;16.35;;;10.02;;
52041;SDS011;38052;45.944;13.624;2024-01-25T05:31:52;13.68;;;10.38;;
52041;SDS011;38052;45.944;13.624;2024-01-25T05:34:18;23.05;;;16.17;;
52041;SDS011;38052;45.944;13.624;2024-01-25T05:36:44;27.88;;;19.73;;
52041;SDS011;38052;45.944;13.624;2024-01-25T05:39:10;29.38;;;22.42;;
52041;SDS011;38052;45.944;13.624;2024-01-25T05:41:37;19.27;;;16.50;;
52041;SDS011;38052;45.944;13.624;2024-01-25T05:44:04;18.52;;;15.48;;
52041;SDS011;38052;45.944;13.624;2024-01-25T05:46:31;21.70;;;13.82;;
52041;SDS011;38052;45.944;13.624;2024-01-25T05:48:57;16.60;;;12.40;;
52041;SDS011;38052;45.944;13.624;2024-01-25T05:51:23;18.77;;;10.23;;
52041;SDS011;38052;45.944;13.624;2024-01-25T05:53:50;14.63;;;9.48;;
52041;SDS011;38052;45.944;13.624;2024-01-25T05:56:16;15.35;;;10.10;;
52041;SDS011;38052;45.944;13.624;2024-01-25T05:58:43;14.18;;;9.57;;
52041;SDS011;38052;45.944;13.624;2024-01-25T06:01:09;14.68;;;11.23;;
52041;SDS011;38052;45.944;13.624;2024-01-25T06:03:35;22.17;;;16.80;;
52041;SDS011;38052;45.944;13.624;2024-01-25T06:06:02;25.75;;;19.20;;
52041;SDS011;38052;45.944;13.624;2024-01-25T06:08:28;27.05;;;21.27;;
52041;SDS011;38052;45.944;13.624;2024-01-25T06:10:55;27.75;;;22.50;;
52041;SDS011;38052;45.944;13.624;2024-01-25T06:13:21;25.27;;;20.00;;
52041;SDS011;38052;45.944;13.624;2024-01-25T06:15:48;29.63;;;20.77;;
52041;SDS011;38052;45.944;13.624;2024-01-25T06:18:14;29.75;;;22.48;;
52041;SDS011;38052;45.944;13.624;2024-01-25T06:20:41;25.25;;;21.10;;
52041;SDS011;38052;45.944;13.624;2024-01-25T06:23:09;33.13;;;22.83;;
52041;SDS011;38052;45.944;13.624;2024-01-25T06:25:36;31.35;;;23.83;;
52041;SDS011;38052;45.944;13.624;2024-01-25T06:28:02;29.42;;;23.38;;
52041;SDS011;38052;45.944;13.624;2024-01-25T06:30:29;29.88;;;21.90;;
52041;SDS011;38052;45.944;13.624;2024-01-25T06:32:56;26.48;;;19.63;;
52041;SDS011;38052;45.944;13.624;2024-01-25T06:35:22;26.73;;;20.30;;
52041;SDS011;38052;45.944;13.624;2024-01-25T06:37:49;24.40;;;18.67;;
52041;SDS011;38052;45.944;13.624;2024-01-25T06:40:15;30.45;;;17.88;;
52041;SDS011;38052;45.944;13.624;2024-01-25T06:42:41;20.73;;;14.95;;
52041;SDS011;38052;45.944;13.624;2024-01-25T06:45:09;20.40;;;12.70;;
52041;SDS011;38052;45.944;13.624;2024-01-25T06:47:36;16.05;;;12.50;;
52041;SDS011;38052;45.944;13.624;2024-01-25T06:50:03;16.83;;;11.57;;
52041;SDS011;38052;45.944;13.624;2024-01-25T06:52:31;14.48;;;9.52;;
52041;SDS011;38052;45.944;13.624;2024-01-25T06:54:57;13.32;;;9.27;;
52041;SDS011;38052;45.944;13.624;2024-01-25T06:57:23;11.20;;;9.15;;
52041;SDS011;38052;45.944;13.624;2024-01-25T06:59:50;14.10;;;9.40;;
52041;SDS011;38052;45.944;13.624;2024-01-25T07:02:17;14.23;;;8.88;;
52041;SDS011;38052;45.944;13.624;2024-01-25T07:04:43;11.88;;;9.13;;
52041;SDS011;38052;45.944;13.624;2024-01-25T07:07:10;13.65;;;10.55;;
52041;SDS011;38052;45.944;13.624;2024-01-25T07:09:37;15.30;;;10.07;;
52041;SDS011;38052;45.944;13.624;2024-01-25T07:12:03;21.63;;;11.52;;
52041;SDS011;38052;45.944;13.624;2024-01-25T07:14:30;17.13;;;11.32;;
52041;SDS011;38052;45.944;13.624;2024-01-25T07:16:57;22.20;;;13.13;;
52041;SDS011;38052;45.944;13.624;2024-01-25T07:19:24;18.38;;;13.27;;
52041;SDS011;38052;45.944;13.624;2024-01-25T07:21:50;18.40;;;12.68;;
52041;SDS011;38052;45.944;13.624;2024-01-25T07:24:17;19.85;;;14.38;;
52041;SDS011;38052;45.944;13.624;2024-01-25T07:26:44;18.42;;;13.73;;
52041;SDS011;38052;45.944;13.624;2024-01-25T07:29:10;24.55;;;17.58;;
52041;SDS011;38052;45.944;13.624;2024-01-25T07:31:37;33.80;;;25.17;;
52041;SDS011;38052;45.944;13.624;2024-01-25T07:34:04;38.67;;;30.17;;
52041;SDS011;38052;45.944;13.624;2024-01-25T07:36:30;35.83;;;29.08;;
52041;SDS011;38052;45.944;13.624;2024-01-25T07:38:57;26.02;;;20.45;;
52041;SDS011;38052;45.944;13.624;2024-01-25T07:41:23;25.27;;;19.27;;
52041;SDS011;38052;45.944;13.624;2024-01-25T07:43:49;26.50;;;16.35;;
52041;SDS011;38052;45.944;13.624;2024-01-25T07:46:20;22.37;;;13.40;;
52041;SDS011;38052;45.944;13.624;2024-01-25T07:48:46;22.52;;;13.55;;
52041;SDS011;38052;45.944;13.624;2024-01-25T07:51:13;18.85;;;11.90;;
52041;SDS011;38052;45.944;13.624;2024-01-25T07:53:40;16.70;;;11.68;;
52041;SDS011;38052;45.944;13.624;2024-01-25T07:56:09;16.13;;;11.23;;
52041;SDS011;38052;45.944;13.624;2024-01-25T07:58:36;16.15;;;11.77;;
52041;SDS011;38052;45.944;13.624;2024-01-25T08:01:05;15.25;;;12.27;;
52041;SDS011;38052;45.944;13.624;2024-01-25T08:03:32;19.13;;;12.27;;
52041;SDS011;38052;45.944;13.624;2024-01-25T08:05:59;13.88;;;10.35;;
52041;SDS011;38052;45.944;13.624;2024-01-25T08:08:26;20.60;;;12.32;;
52041;SDS011;38052;45.944;13.624;2024-01-25T08:10:52;17.58;;;11.75;;
52041;SDS011;38052;45.944;13.624;2024-01-25T08:13:19;26.52;;;13.30;;
52041;SDS011;38052;45.944;13.624;2024-01-25T08:15:45;17.73;;;12.60;;
52041;SDS011;38052;45.944;13.624;2024-01-25T08:18:12;18.70;;;13.50;;
52041;SDS011;38052;45.944;13.624;2024-01-25T08:20:38;22.15;;;15.73;;
52041;SDS011;38052;45.944;13.624;2024-01-25T08:23:04;26.30;;;18.48;;
52041;SDS011;38052;45.944;13.624;2024-01-25T08:25:33;20.98;;;17.05;;
52041;SDS011;38052;45.944;13.624;2024-01-25T08:28:00;20.83;;;14.07;;
52041;SDS011;38052;45.944;13.624;2024-01-25T08:30:26;17.70;;;12.93;;
52041;SDS011;38052;45.944;13.624;2024-01-25T08:32:52;17.23;;;12.50;;
52041;SDS011;38052;45.944;13.624;2024-01-25T08:35:19;19.17;;;11.85;;
52041;SDS011;38052;45.944;13.624;2024-01-25T08:37:46;11.77;;;10.20;;
52041;SDS011;38052;45.944;13.624;2024-01-25T08:40:12;17.00;;;10.15;;
52041;SDS011;38052;45.944;13.624;2024-01-25T08:42:39;12.82;;;9.88;;
52041;SDS011;38052;45.944;13.624;2024-01-25T08:45:05;14.75;;;12.18;;
52041;SDS011;38052;45.944;13.624;2024-01-25T08:47:34;16.27;;;10.52;;
52041;SDS011;38052;45.944;13.624;2024-01-25T08:50:00;14.88;;;10.35;;
52041;SDS011;38052;45.944;13.624;2024-01-25T08:52:27;22.52;;;17.55;;
52041;SDS011;38052;45.944;13.624;2024-01-25T08:54:53;30.42;;;22.15;;
52041;SDS011;38052;45.944;13.624;2024-01-25T08:57:20;42.20;;;28.00;;
52041;SDS011;38052;45.944;13.624;2024-01-25T08:59:47;34.10;;;26.73;;
52041;SDS011;38052;45.944;13.624;2024-01-25T09:02:13;35.08;;;27.98;;
52041;SDS011;38052;45.944;13.624;2024-01-25T09:04:40;33.58;;;27.17;;
52041;SDS011;38052;45.944;13.624;2024-01-25T09:07:08;38.85;;;28.58;;
52041;SDS011;38052;45.944;13.624;2024-01-25T09:09:34;35.05;;;27.45;;
52041;SDS011;38052;45.944;13.624;2024-01-25T09:12:01;37.72;;;27.90;;
52041;SDS011;38052;45.944;13.624;2024-01-25T09:14:27;36.85;;;28.65;;
52041;SDS011;38052;45.944;13.624;2024-01-25T09:16:56;33.17;;;27.70;;
52041;SDS011;38052;45.944;13.624;2024-01-25T09:19:22;39.20;;;29.90;;
52041;SDS011;38052;45.944;13.624;2024-01-25T09:21:49;36.60;;;28.02;;
52041;SDS011;38052;45.944;13.624;2024-01-25T09:24:15;43.72;;;28.70;;
52041;SDS011;38052;45.944;13.624;2024-01-25T09:26:41;31.17;;;26.85;;
52041;SDS011;38052;45.944;13.624;2024-01-25T09:29:08;31.15;;;25.85;;
52041;SDS011;38052;45.944;13.624;2024-01-25T09:31:34;31.50;;;24.13;;
52041;SDS011;38052;45.944;13.624;2024-01-25T09:34:01;35.20;;;27.95;;
52041;SDS011;38052;45.944;13.624;2024-01-25T09:36:27;37.85;;;28.25;;
52041;SDS011;38052;45.944;13.624;2024-01-25T09:38:53;34.78;;;27.23;;
52041;SDS011;38052;45.944;13.624;2024-01-25T09:41:20;37.63;;;26.30;;
52041;SDS011;38052;45.944;13.624;2024-01-25T09:43:46;28.17;;;23.23;;
52041;SDS011;38052;45.944;13.624;2024-01-25T09:46:14;28.67;;;22.90;;
52041;SDS011;38052;45.944;13.624;2024-01-25T09:48:41;29.20;;;20.08;;
52041;SDS011;38052;45.944;13.624;2024-01-25T09:51:09;22.08;;;14.15;;
52041;SDS011;38052;45.944;13.624;2024-01-25T09:53:35;18.50;;;10.50;;
52041;SDS011;38052;45.944;13.624;2024-01-25T09:58:32;16.08;;;9.80;;
52041;SDS011;38052;45.944;13.624;2024-01-25T10:01:01;9.93;;;7.20;;
52041;SDS011;38052;45.944;13.624;2024-01-25T10:03:27;11.02;;;8.23;;
52041;SDS011;38052;45.944;13.624;2024-01-25T10:05:54;10.77;;;7.32;;
52041;SDS011;38052;45.944;13.624;2024-01-25T10:08:20;13.48;;;7.45;;
52041;SDS011;38052;45.944;13.624;2024-01-25T10:10:49;10.52;;;7.60;;
52041;SDS011;38052;45.944;13.624;2024-01-25T10:13:18;13.40;;;9.32;;
52041;SDS011;38052;45.944;13.624;2024-01-25T10:15:44;14.20;;;10.25;;
52041;SDS011;38052;45.944;13.624;2024-01-25T10:18:13;17.80;;;11.07;;
52041;SDS011;38052;45.944;13.624;2024-01-25T10:20:39;17.95;;;13.48;;
52041;SDS011;38052;45.944;13.624;2024-01-25T10:23:06;18.23;;;13.73;;
52041;SDS011;38052;45.944;13.624;2024-01-25T10:25:35;17.08;;;13.93;;
52041;SDS011;38052;45.944;13.624;2024-01-25T10:28:07;15.18;;;10.05;;
52041;SDS011;38052;45.944;13.624;2024-01-25T10:30:35;13.63;;;9.25;;
52041;SDS011;38052;45.944;13.624;2024-01-25T10:33:01;13.48;;;8.98;;
52041;SDS011;38052;45.944;13.624;2024-01-25T10:35:28;10.68;;;7.82;;
52041;SDS011;38052;45.944;13.624;2024-01-25T10:37:55;12.55;;;7.72;;
52041;SDS011;38052;45.944;13.624;2024-01-25T10:40:21;11.30;;;7.32;;
52041;SDS011;38052;45.944;13.624;2024-01-25T10:42:47;15.52;;;7.55;;
52041;SDS011;38052;45.944;13.624;2024-01-25T10:45:14;11.93;;;7.50;;
52041;SDS011;38052;45.944;13.624;2024-01-25T10:47:40;14.90;;;7.72;;
52041;SDS011;38052;45.944;13.624;2024-01-25T10:50:07;11.13;;;7.10;;
52041;SDS011;38052;45.944;13.624;2024-01-25T10:52:34;11.95;;;7.55;;
52041;SDS011;38052;45.944;13.624;2024-01-25T10:55:02;10.50;;;6.50;;
52041;SDS011;38052;45.944;13.624;2024-01-25T10:57:35;7.63;;;6.15;;
52041;SDS011;38052;45.944;13.624;2024-01-25T11:00:03;11.23;;;7.10;;
52041;SDS011;38052;45.944;13.624;2024-01-25T11:02:34;11.05;;;8.20;;
52041;SDS011;38052;45.944;13.624;2024-01-25T11:05:00;11.07;;;7.75;;
52041;SDS011;38052;45.944;13.624;2024-01-25T11:07:28;15.95;;;7.25;;
52041;SDS011;38052;45.944;13.624;2024-01-25T11:09:54;8.15;;;5.97;;
52041;SDS011;38052;45.944;13.624;2024-01-25T11:12:21;10.70;;;6.63;;
52041;SDS011;38052;45.944;13.624;2024-01-25T11:14:54;9.32;;;5.80;;
52041;SDS011;38052;45.944;13.624;2024-01-25T11:17:21;10.50;;;5.65;;
52041;SDS011;38052;45.944;13.624;2024-01-25T11:19:48;14.68;;;7.07;;
52041;SDS011;38052;45.944;13.624;2024-01-25T11:22:15;8.68;;;6.72;;
52041;SDS011;38052;45.944;13.624;2024-01-25T11:24:42;12.50;;;7.57;;
52041;SDS011;38052;45.944;13.624;2024-01-25T11:27:08;12.93;;;7.47;;
52041;SDS011;38052;45.944;13.624;2024-01-25T11:29:35;9.50;;;6.60;;
52041;SDS011;38052;45.944;13.624;2024-01-25T11:32:02;13.10;;;7.85;;
52041;SDS011;38052;45.944;13.624;2024-01-25T11:34:28;12.55;;;8.00;;
52041;SDS011;38052;45.944;13.624;2024-01-25T11:36:56;11.30;;;8.93;;
52041;SDS011;38052;45.944;13.624;2024-01-25T11:39:26;18.30;;;8.82;;
52041;SDS011;38052;45.944;13.624;2024-01-25T11:41:53;14.90;;;9.55;;
52041;SDS011;38052;45.944;13.624;2024-01-25T11:44:19;15.30;;;9.52;;
52041;SDS011;38052;45.944;13.624;2024-01-25T11:46:48;12.82;;;9.27;;
52041;SDS011;38052;45.944;13.624;2024-01-25T11:49:15;12.27;;;9.25;;
52041;SDS011;38052;45.944;13.624;2024-01-25T11:51:41;13.57;;;8.98;;
52041;SDS011;38052;45.944;13.624;2024-01-25T11:54:07;12.73;;;9.20;;
52041;SDS011;38052;45.944;13.624;2024-01-25T11:56:35;12.73;;;8.68;;
52041;SDS011;38052;45.944;13.624;2024-01-25T11:59:05;10.27;;;8.48;;
52041;SDS011;38052;45.944;13.624;2024-01-25T12:01:31;11.40;;;8.57;;
52041;SDS011;38052;45.944;13.624;2024-01-25T12:03:58;11.23;;;7.70;;
52041;SDS011;38052;45.944;13.624;2024-01-25T12:06:25;9.73;;;7.65;;
52041;SDS011;38052;45.944;13.624;2024-01-25T12:08:51;14.30;;;8.05;;
52041;SDS011;38052;45.944;13.624;2024-01-25T12:11:17;9.00;;;6.70;;
52041;SDS011;38052;45.944;13.624;2024-01-25T12:13:44;9.70;;;6.60;;
52041;SDS011;38052;45.944;13.624;2024-01-25T12:16:10;9.85;;;6.72;;
52041;SDS011;38052;45.944;13.624;2024-01-25T12:18:36;7.13;;;5.70;;
52041;SDS011;38052;45.944;13.624;2024-01-25T12:21:03;9.43;;;6.45;;
52041;SDS011;38052;45.944;13.624;2024-01-25T12:23:33;11.75;;;6.32;;
52041;SDS011;38052;45.944;13.624;2024-01-25T12:26:09;10.38;;;5.75;;
52041;SDS011;38052;45.944;13.624;2024-01-25T12:28:35;11.05;;;5.95;;
52041;SDS011;38052;45.944;13.624;2024-01-25T12:31:03;10.90;;;5.95;;
52041;SDS011;38052;45.944;13.624;2024-01-25T12:33:29;9.38;;;5.85;;
52041;SDS011;38052;45.944;13.624;2024-01-25T12:35:56;9.43;;;5.82;;
52041;SDS011;38052;45.944;13.624;2024-01-25T12:38:23;8.90;;;5.68;;
52041;SDS011;38052;45.944;13.624;2024-01-25T12:40:50;13.18;;;5.63;;
52041;SDS011;38052;45.944;13.624;2024-01-25T12:43:17;8.50;;;5.32;;
52041;SDS011;38052;45.944;13.624;2024-01-25T12:45:44;8.05;;;5.88;;
52041;SDS011;38052;45.944;13.624;2024-01-25T12:48:10;8.27;;;5.68;;
52041;SDS011;38052;45.944;13.624;2024-01-25T12:50:37;6.18;;;5.55;;
52041;SDS011;38052;45.944;13.624;2024-01-25T12:53:03;8.95;;;6.38;;
52041;SDS011;38052;45.944;13.624;2024-01-25T12:55:30;7.75;;;5.85;;
52041;SDS011;38052;45.944;13.624;2024-01-25T12:57:57;11.55;;;6.45;;
52041;SDS011;38052;45.944;13.624;2024-01-25T13:00:23;8.05;;;5.95;;
52041;SDS011;38052;45.944;13.624;2024-01-25T13:02:49;9.70;;;6.45;;
52041;SDS011;38052;45.944;13.624;2024-01-25T13:05:16;8.32;;;6.53;;
52041;SDS011;38052;45.944;13.624;2024-01-25T13:07:42;10.00;;;7.40;;
52041;SDS011;38052;45.944;13.624;2024-01-25T13:10:10;14.55;;;8.00;;
52041;SDS011;38052;45.944;13.624;2024-01-25T13:12:39;13.43;;;9.73;;
52041;SDS011;38052;45.944;13.624;2024-01-25T13:15:06;12.93;;;10.00;;
52041;SDS011;38052;45.944;13.624;2024-01-25T13:17:36;15.55;;;11.18;;
52041;SDS011;38052;45.944;13.624;2024-01-25T13:20:02;15.57;;;11.20;;
52041;SDS011;38052;45.944;13.624;2024-01-25T13:22:31;12.95;;;9.95;;
52041;SDS011;38052;45.944;13.624;2024-01-25T13:24:58;13.85;;;9.80;;
52041;SDS011;38052;45.944;13.624;2024-01-25T13:27:24;14.13;;;9.48;;
52041;SDS011;38052;45.944;13.624;2024-01-25T13:29:52;10.48;;;8.57;;
52041;SDS011;38052;45.944;13.624;2024-01-25T13:32:18;12.52;;;9.38;;
52041;SDS011;38052;45.944;13.624;2024-01-25T13:34:45;10.63;;;8.70;;
52041;SDS011;38052;45.944;13.624;2024-01-25T13:37:11;9.68;;;8.68;;
52041;SDS011;38052;45.944;13.624;2024-01-25T13:39:38;11.38;;;8.80;;
52041;SDS011;38052;45.944;13.624;2024-01-25T13:42:04;12.57;;;10.07;;
52041;SDS011;38052;45.944;13.624;2024-01-25T13:44:30;13.98;;;9.73;;
52041;SDS011;38052;45.944;13.624;2024-01-25T13:46:57;14.60;;;9.30;;
52041;SDS011;38052;45.944;13.624;2024-01-25T13:49:24;11.60;;;9.32;;
52041;SDS011;38052;45.944;13.624;2024-01-25T13:51:51;12.57;;;11.27;;
52041;SDS011;38052;45.944;13.624;2024-01-25T13:54:17;16.15;;;10.82;;
52041;SDS011;38052;45.944;13.624;2024-01-25T13:56:44;15.90;;;11.95;;
52041;SDS011;38052;45.944;13.624;2024-01-25T13:59:10;13.63;;;11.30;;
52041;SDS011;38052;45.944;13.624;2024-01-25T14:01:37;15.13;;;11.20;;
52041;SDS011;38052;45.944;13.624;2024-01-25T14:04:04;11.18;;;9.25;;
52041;SDS011;38052;45.944;13.624;2024-01-25T14:06:31;14.10;;;10.60;;
52041;SDS011;38052;45.944;13.624;2024-01-25T14:08:57;15.38;;;11.25;;
52041;SDS011;38052;45.944;13.624;2024-01-25T14:11:23;13.93;;;11.45;;
52041;SDS011;38052;45.944;13.624;2024-01-25T14:13:52;13.70;;;9.60;;